sensor_id;sensor_type;location;lat;lon;timestamp;pressure;altitude;pressure_sealevel;temperature;humidity
10348;BME280;5220;43.192;23.284;2023-05-23T00:01:03;96809.41;;;15.45;100.00
10348;BME280;5220;43.192;23.284;2023-05-23T00:03:31;96806.31;;;15.32;100.00
10348;BME280;5220;43.192;23.284;2023-05-23T00:05:59;96798.69;;;15.38;100.00
10348;BME280;5220;43.192;23.284;2023-05-23T00:08:26;96802.06;;;15.31;100.00
10348;BME280;5220;43.192;23.284;2023-05-23T00:10:53;96795.47;;;15.44;100.00
10348;BME280;5220;43.192;23.284;2023-05-23T00:13:19;96794.78;;;15.52;100.00
10348;BME280;5220;43.192;23.284;2023-05-23T00:15:48;96792.72;;;15.55;100.00
10348;BME280;5220;43.192;23.284;2023-05-23T00:18:15;96790.22;;;15.54;100.00
10348;BME280;5220;43.192;23.284;2023-05-23T00:20:41;96792.03;;;15.53;100.00
10348;BME280;5220;43.192;23.284;2023-05-23T00:23:09;96795.34;;;15.55;100.00
10348;BME280;5220;43.192;23.284;2023-05-23T00:25:38;96789.25;;;15.55;100.00
10348;BME280;5220;43.192;23.284;2023-05-23T00:28:05;96787.47;;;15.55;100.00
10348;BME280;5220;43.192;23.284;2023-05-23T00:30:32;96785.97;;;15.53;100.00
10348;BME280;5220;43.192;23.284;2023-05-23T00:33:00;96785.28;;;15.51;100.00
10348;BME280;5220;43.192;23.284;2023-05-23T00:35:27;96794.78;;;15.52;100.00
10348;BME280;5220;43.192;23.284;2023-05-23T00:37:54;96792.47;;;15.49;100.00
10348;BME280;5220;43.192;23.284;2023-05-23T00:40:20;96793.28;;;15.49;100.00
10348;BME280;5220;43.192;23.284;2023-05-23T00:42:47;96799.63;;;15.47;100.00
10348;BME280;5220;43.192;23.284;2023-05-23T00:45:14;96805.84;;;15.46;100.00
10348;BME280;5220;43.192;23.284;2023-05-23T00:47:41;96796.59;;;15.42;100.00
10348;BME280;5220;43.192;23.284;2023-05-23T00:50:11;96805.00;;;15.45;100.00
10348;BME280;5220;43.192;23.284;2023-05-23T00:52:39;96793.56;;;15.46;100.00
10348;BME280;5220;43.192;23.284;2023-05-23T00:55:07;96793.56;;;15.46;100.00
10348;BME280;5220;43.192;23.284;2023-05-23T00:57:34;96789.97;;;15.47;100.00
10348;BME280;5220;43.192;23.284;2023-05-23T01:00:05;96789.16;;;15.47;100.00
10348;BME280;5220;43.192;23.284;2023-05-23T01:02:38;96787.34;;;15.47;100.00
10348;BME280;5220;43.192;23.284;2023-05-23T01:05:10;96782.94;;;15.48;100.00
10348;BME280;5220;43.192;23.284;2023-05-23T01:07:38;96784.59;;;15.49;100.00
10348;BME280;5220;43.192;23.284;2023-05-23T01:10:06;96774.50;;;15.44;100.00
10348;BME280;5220;43.192;23.284;2023-05-23T01:12:40;96777.97;;;15.45;100.00
10348;BME280;5220;43.192;23.284;2023-05-23T01:15:12;96777.13;;;15.44;100.00
10348;BME280;5220;43.192;23.284;2023-05-23T01:17:45;96778.13;;;15.43;100.00
10348;BME280;5220;43.192;23.284;2023-05-23T01:20:16;96780.88;;;15.42;100.00
10348;BME280;5220;43.192;23.284;2023-05-23T01:23:04;96784.50;;;15.41;100.00
10348;BME280;5220;43.192;23.284;2023-05-23T01:25:47;96786.41;;;15.39;100.00
10348;BME280;5220;43.192;23.284;2023-05-23T01:28:27;96780.50;;;15.37;100.00
10348;BME280;5220;43.192;23.284;2023-05-23T01:30:57;96773.59;;;15.36;100.00
10348;BME280;5220;43.192;23.284;2023-05-23T01:33:24;96771.13;;;15.34;100.00
10348;BME280;5220;43.192;23.284;2023-05-23T01:35:51;96772.22;;;15.32;100.00
10348;BME280;5220;43.192;23.284;2023-05-23T01:38:18;96775.31;;;15.27;100.00
10348;BME280;5220;43.192;23.284;2023-05-23T01:40:45;96766.59;;;15.27;100.00
10348;BME280;5220;43.192;23.284;2023-05-23T01:43:11;96767.56;;;15.26;100.00
10348;BME280;5220;43.192;23.284;2023-05-23T01:45:40;96770.34;;;15.24;100.00
10348;BME280;5220;43.192;23.284;2023-05-23T01:48:08;96772.44;;;15.21;100.00
10348;BME280;5220;43.192;23.284;2023-05-23T01:50:36;96768.03;;;15.21;100.00
10348;BME280;5220;43.192;23.284;2023-05-23T01:53:03;96768.16;;;15.20;100.00
10348;BME280;5220;43.192;23.284;2023-05-23T01:55:30;96770.09;;;15.18;100.00
10348;BME280;5220;43.192;23.284;2023-05-23T01:57:58;96776.47;;;15.15;100.00
10348;BME280;5220;43.192;23.284;2023-05-23T02:00:25;96773.13;;;15.13;100.00
10348;BME280;5220;43.192;23.284;2023-05-23T02:02:54;96769.72;;;15.13;100.00
10348;BME280;5220;43.192;23.284;2023-05-23T02:05:20;96769.19;;;15.09;100.00
10348;BME280;5220;43.192;23.284;2023-05-23T02:07:47;96767.38;;;15.10;100.00
10348;BME280;5220;43.192;23.284;2023-05-23T02:10:14;96765.84;;;15.07;100.00
10348;BME280;5220;43.192;23.284;2023-05-23T02:12:40;96764.50;;;15.03;100.00
10348;BME280;5220;43.192;23.284;2023-05-23T02:15:08;96767.41;;;15.00;100.00
10348;BME280;5220;43.192;23.284;2023-05-23T02:17:34;96767.41;;;15.00;100.00
10348;BME280;5220;43.192;23.284;2023-05-23T02:20:05;96762.47;;;14.97;100.00
10348;BME280;5220;43.192;23.284;2023-05-23T02:22:32;96760.41;;;15.00;100.00
10348;BME280;5220;43.192;23.284;2023-05-23T02:24:59;96770.72;;;15.02;100.00
10348;BME280;5220;43.192;23.284;2023-05-23T02:27:26;96766.31;;;15.02;100.00
10348;BME280;5220;43.192;23.284;2023-05-23T02:29:53;96767.41;;;15.00;100.00
10348;BME280;5220;43.192;23.284;2023-05-23T02:32:20;96770.03;;;15.00;100.00
10348;BME280;5220;43.192;23.284;2023-05-23T02:34:46;96776.91;;;15.01;100.00
10348;BME280;5220;43.192;23.284;2023-05-23T02:37:15;96766.72;;;14.98;100.00
10348;BME280;5220;43.192;23.284;2023-05-23T02:39:42;96770.75;;;14.92;100.00
10348;BME280;5220;43.192;23.284;2023-05-23T02:42:09;96770.63;;;14.94;100.00
10348;BME280;5220;43.192;23.284;2023-05-23T02:44:36;96769.09;;;14.91;100.00
10348;BME280;5220;43.192;23.284;2023-05-23T02:47:03;96768.41;;;14.89;100.00
10348;BME280;5220;43.192;23.284;2023-05-23T02:49:29;96756.72;;;14.84;100.00
10348;BME280;5220;43.192;23.284;2023-05-23T02:51:56;96771.88;;;14.90;100.00
10348;BME280;5220;43.192;23.284;2023-05-23T02:54:24;96769.66;;;14.85;100.00
10348;BME280;5220;43.192;23.284;2023-05-23T02:56:51;96766.25;;;14.85;100.00
10348;BME280;5220;43.192;23.284;2023-05-23T02:59:19;96765.69;;;14.81;100.00
10348;BME280;5220;43.192;23.284;2023-05-23T03:01:46;96766.81;;;14.79;100.00
10348;BME280;5220;43.192;23.284;2023-05-23T03:04:13;96764.03;;;14.80;100.00
10348;BME280;5220;43.192;23.284;2023-05-23T03:06:40;96764.88;;;14.81;100.00
10348;BME280;5220;43.192;23.284;2023-05-23T03:09:09;96765.00;;;14.79;100.00
10348;BME280;5220;43.192;23.284;2023-05-23T03:11:37;96764.19;;;14.79;100.00
10348;BME280;5220;43.192;23.284;2023-05-23T03:14:04;96763.91;;;14.82;100.00
10348;BME280;5220;43.192;23.284;2023-05-23T03:16:31;96763.47;;;14.86;100.00
10348;BME280;5220;43.192;23.284;2023-05-23T03:18:57;96764.28;;;14.87;100.00
10348;BME280;5220;43.192;23.284;2023-05-23T03:21:25;96759.19;;;14.85;100.00
10348;BME280;5220;43.192;23.284;2023-05-23T03:23:51;96765.25;;;14.86;100.00
10348;BME280;5220;43.192;23.284;2023-05-23T03:26:18;96770.34;;;14.87;100.00
10348;BME280;5220;43.192;23.284;2023-05-23T03:28:47;96772.00;;;14.88;100.00
10348;BME280;5220;43.192;23.284;2023-05-23T03:31:14;96774.47;;;14.90;100.00
10348;BME280;5220;43.192;23.284;2023-05-23T03:33:40;96769.91;;;14.92;100.00
10348;BME280;5220;43.192;23.284;2023-05-23T03:36:07;96775.16;;;14.92;100.00
10348;BME280;5220;43.192;23.284;2023-05-23T03:38:34;96776.53;;;14.96;100.00
10348;BME280;5220;43.192;23.284;2023-05-23T03:41:01;96781.34;;;15.00;100.00
10348;BME280;5220;43.192;23.284;2023-05-23T03:43:27;96783.41;;;15.06;100.00
10348;BME280;5220;43.192;23.284;2023-05-23T03:45:55;96778.16;;;15.06;100.00
10348;BME280;5220;43.192;23.284;2023-05-23T03:48:22;96786.41;;;15.12;100.00
10348;BME280;5220;43.192;23.284;2023-05-23T03:50:49;96791.34;;;15.15;100.00
10348;BME280;5220;43.192;23.284;2023-05-23T03:53:15;96791.91;;;15.18;100.00
10348;BME280;5220;43.192;23.284;2023-05-23T03:55:42;96798.50;;;15.22;100.00
10348;BME280;5220;43.192;23.284;2023-05-23T03:58:09;96787.56;;;15.27;100.00
10348;BME280;5220;43.192;23.284;2023-05-23T04:00:36;96785.78;;;15.27;100.00
10348;BME280;5220;43.192;23.284;2023-05-23T04:03:04;96786.16;;;15.32;100.00
10348;BME280;5220;43.192;23.284;2023-05-23T04:05:31;96787.69;;;15.35;100.00
10348;BME280;5220;43.192;23.284;2023-05-23T04:07:57;96788.19;;;15.38;100.00
10348;BME280;5220;43.192;23.284;2023-05-23T04:10:25;96793.31;;;15.40;100.00
10348;BME280;5220;43.192;23.284;2023-05-23T04:12:52;96791.06;;;15.45;100.00
10348;BME280;5220;43.192;23.284;2023-05-23T04:15:19;96792.47;;;15.49;100.00
10348;BME280;5220;43.192;23.284;2023-05-23T04:17:46;96797.41;;;15.52;100.00
10348;BME280;5220;43.192;23.284;2023-05-23T04:20:14;96802.25;;;15.56;100.00
10348;BME280;5220;43.192;23.284;2023-05-23T04:22:41;96799.69;;;15.65;100.00
10348;BME280;5220;43.192;23.284;2023-05-23T04:25:08;96803.53;;;15.70;100.00
10348;BME280;5220;43.192;23.284;2023-05-23T04:27:35;96807.22;;;15.77;100.00
10348;BME280;5220;43.192;23.284;2023-05-23T04:30:05;96805.13;;;15.81;100.00
10348;BME280;5220;43.192;23.284;2023-05-23T04:32:33;96806.03;;;15.89;100.00
10348;BME280;5220;43.192;23.284;2023-05-23T04:35:00;96805.31;;;15.97;100.00
10348;BME280;5220;43.192;23.284;2023-05-23T04:37:29;96804.72;;;16.03;100.00
10348;BME280;5220;43.192;23.284;2023-05-23T04:39:57;96805.25;;;16.06;100.00
10348;BME280;5220;43.192;23.284;2023-05-23T04:42:24;96808.06;;;16.13;100.00
10348;BME280;5220;43.192;23.284;2023-05-23T04:44:51;96812.03;;;16.17;100.00
10348;BME280;5220;43.192;23.284;2023-05-23T04:47:17;96816.88;;;16.22;100.00
10348;BME280;5220;43.192;23.284;2023-05-23T04:49:44;96817.22;;;16.27;100.00
10348;BME280;5220;43.192;23.284;2023-05-23T04:52:12;96823.84;;;16.31;100.00
10348;BME280;5220;43.192;23.284;2023-05-23T04:54:40;96826.00;;;16.35;100.00
10348;BME280;5220;43.192;23.284;2023-05-23T04:57:09;96815.19;;;16.38;100.00
10348;BME280;5220;43.192;23.284;2023-05-23T04:59:36;96825.25;;;16.43;100.00
10348;BME280;5220;43.192;23.284;2023-05-23T05:02:04;96820.53;;;16.46;100.00
10348;BME280;5220;43.192;23.284;2023-05-23T05:04:31;96821.84;;;16.50;100.00
10348;BME280;5220;43.192;23.284;2023-05-23T05:06:58;96825.00;;;16.54;100.00
10348;BME280;5220;43.192;23.284;2023-05-23T05:09:24;96826.53;;;16.56;100.00
10348;BME280;5220;43.192;23.284;2023-05-23T05:11:53;96823.75;;;16.58;100.00
10348;BME280;5220;43.192;23.284;2023-05-23T05:14:19;96818.50;;;16.58;100.00
10348;BME280;5220;43.192;23.284;2023-05-23T05:16:46;96826.69;;;16.55;100.00
10348;BME280;5220;43.192;23.284;2023-05-23T05:19:14;96824.44;;;16.60;100.00
10348;BME280;5220;43.192;23.284;2023-05-23T05:21:41;96830.06;;;16.65;100.00
10348;BME280;5220;43.192;23.284;2023-05-23T05:24:08;96833.34;;;16.67;100.00
10348;BME280;5220;43.192;23.284;2023-05-23T05:26:35;96830.41;;;16.70;100.00
10348;BME280;5220;43.192;23.284;2023-05-23T05:29:03;96827.50;;;16.73;100.00
10348;BME280;5220;43.192;23.284;2023-05-23T05:31:30;96823.91;;;16.74;100.00
10348;BME280;5220;43.192;23.284;2023-05-23T05:33:57;96822.75;;;16.77;100.00
10348;BME280;5220;43.192;23.284;2023-05-23T05:36:24;96817.72;;;16.83;100.00
10348;BME280;5220;43.192;23.284;2023-05-23T05:38:50;96812.69;;;16.90;100.00
10348;BME280;5220;43.192;23.284;2023-05-23T05:41:18;96815.41;;;16.80;100.00
10348;BME280;5220;43.192;23.284;2023-05-23T05:43:44;96812.63;;;17.07;100.00
10348;BME280;5220;43.192;23.284;2023-05-23T05:46:12;96814.06;;;17.28;100.00
10348;BME280;5220;43.192;23.284;2023-05-23T05:48:39;96814.53;;;17.57;100.00
10348;BME280;5220;43.192;23.284;2023-05-23T05:51:06;96825.09;;;17.65;100.00
10348;BME280;5220;43.192;23.284;2023-05-23T05:53:32;96811.34;;;17.87;100.00
10348;BME280;5220;43.192;23.284;2023-05-23T05:55:59;96815.34;;;18.15;100.00
10348;BME280;5220;43.192;23.284;2023-05-23T05:58:26;96811.09;;;18.47;100.00
10348;BME280;5220;43.192;23.284;2023-05-23T06:00:53;96810.16;;;18.80;100.00
10348;BME280;5220;43.192;23.284;2023-05-23T06:03:22;96823.47;;;19.11;100.00
10348;BME280;5220;43.192;23.284;2023-05-23T06:05:48;96827.22;;;19.32;100.00
10348;BME280;5220;43.192;23.284;2023-05-23T06:08:15;96832.81;;;19.46;100.00
10348;BME280;5220;43.192;23.284;2023-05-23T06:10:42;96827.97;;;19.57;100.00
10348;BME280;5220;43.192;23.284;2023-05-23T06:13:09;96839.31;;;19.66;100.00
10348;BME280;5220;43.192;23.284;2023-05-23T06:15:35;96829.88;;;19.79;100.00
10348;BME280;5220;43.192;23.284;2023-05-23T06:18:02;96841.38;;;19.86;100.00
10348;BME280;5220;43.192;23.284;2023-05-23T06:20:30;96843.31;;;19.93;100.00
10348;BME280;5220;43.192;23.284;2023-05-23T06:22:57;96841.47;;;20.01;100.00
10348;BME280;5220;43.192;23.284;2023-05-23T06:25:24;96841.44;;;20.09;100.00
10348;BME280;5220;43.192;23.284;2023-05-23T06:27:51;96846.00;;;20.15;100.00
10348;BME280;5220;43.192;23.284;2023-05-23T06:30:17;96840.38;;;20.18;100.00
10348;BME280;5220;43.192;23.284;2023-05-23T06:32:45;96845.03;;;20.16;100.00
10348;BME280;5220;43.192;23.284;2023-05-23T06:35:11;96842.31;;;20.24;100.00
10348;BME280;5220;43.192;23.284;2023-05-23T06:37:39;96845.47;;;20.28;100.00
10348;BME280;5220;43.192;23.284;2023-05-23T06:40:10;96848.75;;;20.30;100.00
10348;BME280;5220;43.192;23.284;2023-05-23T06:42:37;96838.16;;;20.38;100.00
10348;BME280;5220;43.192;23.284;2023-05-23T06:45:04;96847.25;;;20.35;100.00
10348;BME280;5220;43.192;23.284;2023-05-23T06:47:31;96841.28;;;20.42;100.00
10348;BME280;5220;43.192;23.284;2023-05-23T06:49:58;96844.97;;;20.32;100.00
10348;BME280;5220;43.192;23.284;2023-05-23T06:52:24;96850.19;;;20.41;100.00
10348;BME280;5220;43.192;23.284;2023-05-23T06:54:52;96841.88;;;20.52;100.00
10348;BME280;5220;43.192;23.284;2023-05-23T06:57:19;96846.97;;;20.53;100.00
10348;BME280;5220;43.192;23.284;2023-05-23T06:59:46;96840.09;;;20.67;100.00
10348;BME280;5220;43.192;23.284;2023-05-23T07:02:13;96842.19;;;20.71;100.00
10348;BME280;5220;43.192;23.284;2023-05-23T07:04:39;96837.56;;;20.73;100.00
10348;BME280;5220;43.192;23.284;2023-05-23T07:07:06;96840.50;;;20.78;100.00
10348;BME280;5220;43.192;23.284;2023-05-23T07:09:33;96838.59;;;20.87;100.00
10348;BME280;5220;43.192;23.284;2023-05-23T07:12:01;96835.44;;;20.91;100.00
10348;BME280;5220;43.192;23.284;2023-05-23T07:14:28;96832.53;;;21.01;100.00
10348;BME280;5220;43.192;23.284;2023-05-23T07:16:54;96824.38;;;21.11;100.00
10348;BME280;5220;43.192;23.284;2023-05-23T07:19:21;96833.56;;;21.15;100.00
10348;BME280;5220;43.192;23.284;2023-05-23T07:21:48;96829.22;;;21.22;100.00
10348;BME280;5220;43.192;23.284;2023-05-23T07:24:14;96817.81;;;21.21;100.00
10348;BME280;5220;43.192;23.284;2023-05-23T07:26:41;96815.25;;;21.28;100.00
10348;BME280;5220;43.192;23.284;2023-05-23T07:29:09;96821.28;;;21.36;100.00
10348;BME280;5220;43.192;23.284;2023-05-23T07:31:36;96823.19;;;21.42;100.00
10348;BME280;5220;43.192;23.284;2023-05-23T07:34:03;96818.66;;;21.51;100.00
10348;BME280;5220;43.192;23.284;2023-05-23T07:36:30;96824.19;;;21.56;100.00
10348;BME280;5220;43.192;23.284;2023-05-23T07:38:59;96817.81;;;21.51;100.00
10348;BME280;5220;43.192;23.284;2023-05-23T07:41:26;96828.75;;;21.62;100.00
10348;BME280;5220;43.192;23.284;2023-05-23T07:43:53;96821.91;;;21.68;100.00
10348;BME280;5220;43.192;23.284;2023-05-23T07:46:22;96825.66;;;21.59;100.00
10348;BME280;5220;43.192;23.284;2023-05-23T07:48:49;96818.53;;;21.59;100.00
10348;BME280;5220;43.192;23.284;2023-05-23T07:51:16;96827.50;;;21.73;100.00
10348;BME280;5220;43.192;23.284;2023-05-23T07:53:44;96832.25;;;21.48;100.00
10348;BME280;5220;43.192;23.284;2023-05-23T07:56:11;96827.13;;;21.76;100.00
10348;BME280;5220;43.192;23.284;2023-05-23T07:58:38;96827.38;;;21.95;100.00
10348;BME280;5220;43.192;23.284;2023-05-23T08:01:05;96820.53;;;22.01;100.00
10348;BME280;5220;43.192;23.284;2023-05-23T08:03:34;96819.50;;;22.02;100.00
10348;BME280;5220;43.192;23.284;2023-05-23T08:06:01;96825.94;;;21.93;100.00
10348;BME280;5220;43.192;23.284;2023-05-23T08:08:28;96820.81;;;21.91;100.00
10348;BME280;5220;43.192;23.284;2023-05-23T08:10:56;96820.22;;;22.11;100.00
10348;BME280;5220;43.192;23.284;2023-05-23T08:13:22;96819.53;;;22.23;100.00
10348;BME280;5220;43.192;23.284;2023-05-23T08:15:49;96816.78;;;22.31;100.00
10348;BME280;5220;43.192;23.284;2023-05-23T08:18:16;96818.75;;;22.23;100.00
10348;BME280;5220;43.192;23.284;2023-05-23T08:20:44;96810.88;;;22.50;100.00
10348;BME280;5220;43.192;23.284;2023-05-23T08:23:11;96805.75;;;22.49;100.00
10348;BME280;5220;43.192;23.284;2023-05-23T08:25:38;96811.41;;;22.46;100.00
10348;BME280;5220;43.192;23.284;2023-05-23T08:28:05;96815.41;;;22.35;100.00
10348;BME280;5220;43.192;23.284;2023-05-23T08:30:32;96820.50;;;22.16;100.00
10348;BME280;5220;43.192;23.284;2023-05-23T08:32:59;96823.41;;;22.42;100.00
10348;BME280;5220;43.192;23.284;2023-05-23T08:35:29;96808.06;;;22.59;100.00
10348;BME280;5220;43.192;23.284;2023-05-23T08:38:01;96803.78;;;22.58;100.00
10348;BME280;5220;43.192;23.284;2023-05-23T08:40:29;96812.00;;;22.84;100.00
10348;BME280;5220;43.192;23.284;2023-05-23T08:42:56;96812.00;;;22.84;100.00
10348;BME280;5220;43.192;23.284;2023-05-23T08:45:23;96807.28;;;23.07;100.00
10348;BME280;5220;43.192;23.284;2023-05-23T08:47:51;96808.25;;;22.99;100.00
10348;BME280;5220;43.192;23.284;2023-05-23T08:50:20;96809.75;;;23.09;100.00
10348;BME280;5220;43.192;23.284;2023-05-23T08:52:52;96802.41;;;23.11;100.00
10348;BME280;5220;43.192;23.284;2023-05-23T08:55:23;96804.97;;;23.25;100.00
10348;BME280;5220;43.192;23.284;2023-05-23T08:57:50;96810.34;;;23.38;100.00
10348;BME280;5220;43.192;23.284;2023-05-23T09:00:18;96804.66;;;23.41;100.00
10348;BME280;5220;43.192;23.284;2023-05-23T09:02:45;96806.41;;;23.28;100.00
10348;BME280;5220;43.192;23.284;2023-05-23T09:05:12;96807.56;;;23.46;100.00
10348;BME280;5220;43.192;23.284;2023-05-23T09:07:39;96795.41;;;23.31;100.00
10348;BME280;5220;43.192;23.284;2023-05-23T09:10:08;96798.22;;;23.50;100.00
10348;BME280;5220;43.192;23.284;2023-05-23T09:12:37;96805.34;;;23.50;100.00
10348;BME280;5220;43.192;23.284;2023-05-23T09:15:05;96809.19;;;22.92;100.00
10348;BME280;5220;43.192;23.284;2023-05-23T09:17:32;96806.16;;;23.23;100.00
10348;BME280;5220;43.192;23.284;2023-05-23T09:19:59;96801.28;;;23.26;100.00
10348;BME280;5220;43.192;23.284;2023-05-23T09:22:26;96801.50;;;22.55;100.00
10348;BME280;5220;43.192;23.284;2023-05-23T09:24:54;96802.16;;;22.57;100.00
10348;BME280;5220;43.192;23.284;2023-05-23T09:27:21;96795.50;;;22.88;100.00
10348;BME280;5220;43.192;23.284;2023-05-23T09:29:49;96795.47;;;23.10;100.00
10348;BME280;5220;43.192;23.284;2023-05-23T09:32:17;96795.34;;;23.24;100.00
10348;BME280;5220;43.192;23.284;2023-05-23T09:34:54;96797.06;;;23.38;100.00
10348;BME280;5220;43.192;23.284;2023-05-23T09:37:28;96788.75;;;23.41;100.00
10348;BME280;5220;43.192;23.284;2023-05-23T09:39:55;96796.91;;;23.40;96.24
10348;BME280;5220;43.192;23.284;2023-05-23T09:42:22;96795.97;;;23.54;97.52
10348;BME280;5220;43.192;23.284;2023-05-23T09:44:52;96794.34;;;23.53;98.63
10348;BME280;5220;43.192;23.284;2023-05-23T09:47:19;96793.59;;;23.66;100.00
10348;BME280;5220;43.192;23.284;2023-05-23T09:49:46;96787.50;;;23.78;97.17
10348;BME280;5220;43.192;23.284;2023-05-23T09:52:13;96782.69;;;23.26;87.13
10348;BME280;5220;43.192;23.284;2023-05-23T09:54:39;96789.84;;;23.53;86.63
10348;BME280;5220;43.192;23.284;2023-05-23T09:57:09;96793.72;;;23.58;86.81
10348;BME280;5220;43.192;23.284;2023-05-23T09:59:39;96784.75;;;23.59;85.80
10348;BME280;5220;43.192;23.284;2023-05-23T10:02:10;96789.09;;;23.73;85.11
10348;BME280;5220;43.192;23.284;2023-05-23T10:04:38;96791.81;;;23.86;84.62
10348;BME280;5220;43.192;23.284;2023-05-23T10:07:12;96775.91;;;23.92;94.68
10348;BME280;5220;43.192;23.284;2023-05-23T10:09:41;96771.13;;;23.34;87.97
10348;BME280;5220;43.192;23.284;2023-05-23T10:15:12;96771.38;;;23.86;87.79
10348;BME280;5220;43.192;23.284;2023-05-23T10:17:52;96764.91;;;24.02;91.57
10348;BME280;5220;43.192;23.284;2023-05-23T10:20:25;96771.00;;;23.96;88.24
10348;BME280;5220;43.192;23.284;2023-05-23T10:22:54;96765.59;;;23.63;90.74
10348;BME280;5220;43.192;23.284;2023-05-23T10:25:21;96761.59;;;23.93;92.50
10348;BME280;5220;43.192;23.284;2023-05-23T10:27:49;96765.31;;;24.05;95.08
10348;BME280;5220;43.192;23.284;2023-05-23T10:30:18;96770.72;;;24.19;98.30
10348;BME280;5220;43.192;23.284;2023-05-23T10:32:47;96760.25;;;24.17;92.90
10348;BME280;5220;43.192;23.284;2023-05-23T10:35:19;96764.34;;;24.20;85.01
10348;BME280;5220;43.192;23.284;2023-05-23T10:37:55;96751.81;;;24.07;91.08
10348;BME280;5220;43.192;23.284;2023-05-23T10:40:31;96749.44;;;24.12;91.55
10348;BME280;5220;43.192;23.284;2023-05-23T10:43:09;96746.91;;;24.04;86.10
10348;BME280;5220;43.192;23.284;2023-05-23T10:45:40;96752.25;;;24.10;84.36
10348;BME280;5220;43.192;23.284;2023-05-23T10:48:20;96750.63;;;24.16;90.64
10348;BME280;5220;43.192;23.284;2023-05-23T10:51:01;96756.38;;;24.20;87.81
10348;BME280;5220;43.192;23.284;2023-05-23T10:53:29;96745.34;;;24.29;91.70
10348;BME280;5220;43.192;23.284;2023-05-23T10:55:56;96744.97;;;24.39;92.73
10348;BME280;5220;43.192;23.284;2023-05-23T10:58:23;96743.34;;;24.38;86.08
10348;BME280;5220;43.192;23.284;2023-05-23T11:00:51;96741.25;;;24.27;78.77
10348;BME280;5220;43.192;23.284;2023-05-23T11:03:29;96752.34;;;24.43;76.67
10348;BME280;5220;43.192;23.284;2023-05-23T11:05:58;96737.78;;;24.33;79.83
10348;BME280;5220;43.192;23.284;2023-05-23T11:08:25;96739.06;;;24.50;84.09
10348;BME280;5220;43.192;23.284;2023-05-23T11:10:55;96740.06;;;24.55;78.35
10348;BME280;5220;43.192;23.284;2023-05-23T11:13:22;96739.25;;;24.61;81.43
10348;BME280;5220;43.192;23.284;2023-05-23T11:15:49;96741.69;;;24.43;83.35
10348;BME280;5220;43.192;23.284;2023-05-23T11:18:21;96733.72;;;24.50;81.08
10348;BME280;5220;43.192;23.284;2023-05-23T11:20:51;96730.44;;;24.68;87.01
10348;BME280;5220;43.192;23.284;2023-05-23T11:23:18;96735.16;;;24.66;86.41
10348;BME280;5220;43.192;23.284;2023-05-23T11:25:48;96732.50;;;24.66;78.62
10348;BME280;5220;43.192;23.284;2023-05-23T11:28:15;96739.25;;;24.75;77.89
10348;BME280;5220;43.192;23.284;2023-05-23T11:30:43;96735.97;;;24.66;80.27
10348;BME280;5220;43.192;23.284;2023-05-23T11:33:13;96729.03;;;24.58;79.83
10348;BME280;5220;43.192;23.284;2023-05-23T11:35:41;96727.19;;;24.66;79.84
10348;BME280;5220;43.192;23.284;2023-05-23T11:38:10;96728.41;;;24.43;85.35
10348;BME280;5220;43.192;23.284;2023-05-23T11:40:38;96722.84;;;24.32;81.75
10348;BME280;5220;43.192;23.284;2023-05-23T11:43:06;96721.03;;;24.58;86.61
10348;BME280;5220;43.192;23.284;2023-05-23T11:45:35;96721.22;;;24.50;80.80
10348;BME280;5220;43.192;23.284;2023-05-23T11:48:05;96723.69;;;24.65;76.93
10348;BME280;5220;43.192;23.284;2023-05-23T11:50:32;96712.44;;;24.83;85.12
10348;BME280;5220;43.192;23.284;2023-05-23T11:53:00;96716.75;;;24.84;81.21
10348;BME280;5220;43.192;23.284;2023-05-23T11:55:28;96716.34;;;24.34;79.77
10348;BME280;5220;43.192;23.284;2023-05-23T11:57:55;96714.28;;;24.63;80.67
10348;BME280;5220;43.192;23.284;2023-05-23T12:00:22;96707.72;;;24.78;82.71
10348;BME280;5220;43.192;23.284;2023-05-23T12:02:49;96704.44;;;24.63;70.95
10348;BME280;5220;43.192;23.284;2023-05-23T12:05:16;96708.53;;;24.92;75.57
10348;BME280;5220;43.192;23.284;2023-05-23T12:07:43;96713.03;;;25.04;77.65
10348;BME280;5220;43.192;23.284;2023-05-23T12:10:11;96701.97;;;25.07;73.89
10348;BME280;5220;43.192;23.284;2023-05-23T12:12:41;96707.53;;;24.86;70.34
10348;BME280;5220;43.192;23.284;2023-05-23T12:15:08;96694.22;;;24.67;66.04
10348;BME280;5220;43.192;23.284;2023-05-23T12:17:35;96690.16;;;24.84;68.21
10348;BME280;5220;43.192;23.284;2023-05-23T12:20:04;96690.97;;;24.84;80.82
10348;BME280;5220;43.192;23.284;2023-05-23T12:22:31;96690.16;;;24.84;69.27
10348;BME280;5220;43.192;23.284;2023-05-23T12:24:58;96694.00;;;24.88;69.89
10348;BME280;5220;43.192;23.284;2023-05-23T12:27:28;96688.88;;;24.80;71.68
10348;BME280;5220;43.192;23.284;2023-05-23T12:30:07;96679.06;;;24.74;77.30
10348;BME280;5220;43.192;23.284;2023-05-23T12:32:35;96686.03;;;24.61;75.99
10348;BME280;5220;43.192;23.284;2023-05-23T12:35:03;96686.03;;;24.68;67.02
10348;BME280;5220;43.192;23.284;2023-05-23T12:37:30;96682.75;;;24.79;66.87
10348;BME280;5220;43.192;23.284;2023-05-23T12:39:57;96682.75;;;24.86;63.55
10348;BME280;5220;43.192;23.284;2023-05-23T12:42:23;96674.16;;;24.77;64.75
10348;BME280;5220;43.192;23.284;2023-05-23T12:44:50;96673.38;;;24.37;61.09
10348;BME280;5220;43.192;23.284;2023-05-23T12:47:19;96672.34;;;24.38;68.27
10348;BME280;5220;43.192;23.284;2023-05-23T12:49:46;96673.38;;;24.31;70.98
10348;BME280;5220;43.192;23.284;2023-05-23T12:52:13;96669.25;;;24.35;60.22
10348;BME280;5220;43.192;23.284;2023-05-23T12:54:39;96661.09;;;24.36;63.37
10348;BME280;5220;43.192;23.284;2023-05-23T12:57:06;96661.09;;;24.43;60.38
10348;BME280;5220;43.192;23.284;2023-05-23T12:59:33;96658.84;;;24.46;60.67